createdAt,value
2023-04-24T00:00:31.146Z,8.02
2023-04-24T00:03:34.848Z,6.38
2023-04-24T00:06:38.029Z,9.48
2023-04-24T00:09:41.067Z,9.23
2023-04-24T00:12:43.371Z,8.10
2023-04-24T00:15:46.083Z,10.40
2023-04-24T00:18:48.872Z,9.48
2023-04-24T00:21:51.800Z,9.93
2023-04-24T00:24:53.617Z,10.35
2023-04-24T00:27:56.330Z,14.90
2023-04-24T00:30:58.349Z,11.85
2023-04-24T00:34:00.320Z,11.50
2023-04-24T00:37:02.217Z,13.38
2023-04-24T00:40:09.312Z,18.20
2023-04-24T00:43:11.261Z,13.88
2023-04-24T00:46:13.990Z,12.57
2023-04-24T00:49:16.072Z,17.48
2023-04-24T00:52:19.538Z,14.25
2023-04-24T00:55:22.018Z,13.82
2023-04-24T00:58:28.832Z,20.03
2023-04-24T01:01:31.478Z,18.27
2023-04-24T01:04:33.431Z,20.52
2023-04-24T01:07:36.697Z,18.27
2023-04-24T01:10:41.844Z,13.35
2023-04-24T01:13:44.039Z,17.65
2023-04-24T01:16:46.255Z,18.27
2023-04-24T01:19:48.066Z,18.92
2023-04-24T01:22:50.189Z,20.92
2023-04-24T01:25:52.336Z,14.00
2023-04-24T01:28:56.042Z,14.52
2023-04-24T01:31:59.509Z,16.83
2023-04-24T01:35:01.752Z,14.45
2023-04-24T01:38:03.893Z,18.35
2023-04-24T01:41:06.798Z,16.58
2023-04-24T01:44:08.800Z,15.85
2023-04-24T01:47:12.534Z,16.23
2023-04-24T01:50:14.571Z,21.48
2023-04-24T01:53:16.653Z,13.88
2023-04-24T01:56:19.456Z,18.38
2023-04-24T01:59:29.155Z,20.85
2023-04-24T02:02:31.595Z,17.55
2023-04-24T02:05:33.708Z,13.83
2023-04-24T02:08:35.506Z,16.75
2023-04-24T02:11:37.708Z,17.58
2023-04-24T02:14:39.666Z,15.77
2023-04-24T02:17:41.529Z,16.13
2023-04-24T02:20:43.322Z,19.48
2023-04-24T02:23:45.970Z,17.95
2023-04-24T02:26:47.775Z,12.98
2023-04-24T02:29:49.556Z,14.95
2023-04-24T02:32:51.389Z,13.10
2023-04-24T02:35:58.028Z,18.17
2023-04-24T02:38:59.909Z,14.98
2023-04-24T02:42:03.458Z,16.20
2023-04-24T02:45:06.117Z,16.23
2023-04-24T02:48:07.979Z,13.85
2023-04-24T02:51:09.824Z,17.98
2023-04-24T02:54:12.078Z,18.73
2023-04-24T02:57:13.824Z,17.10
2023-04-24T03:00:17.107Z,14.35
2023-04-24T03:03:19.303Z,13.93
2023-04-24T03:06:26.698Z,16.00
2023-04-24T03:09:28.466Z,17.05
2023-04-24T03:12:30.259Z,15.23
2023-04-24T03:15:32.373Z,14.73
2023-04-24T03:18:39.022Z,16.25
2023-04-24T03:21:43.621Z,18.67
2023-04-24T03:24:46.354Z,12.98
2023-04-24T03:27:48.217Z,19.60
2023-04-24T03:30:50.028Z,15.80
2023-04-24T03:33:52.252Z,13.27
2023-04-24T03:36:55.028Z,15.63
2023-04-24T03:39:56.766Z,16.55
2023-04-24T03:42:59.387Z,15.48
2023-04-24T03:46:01.595Z,17.55
2023-04-24T03:49:04.405Z,15.10
2023-04-24T03:52:06.174Z,14.95
2023-04-24T03:55:08.601Z,15.18
2023-04-24T03:58:10.480Z,14.20
2023-04-24T04:01:14.574Z,16.23
2023-04-24T04:04:16.542Z,16.98
2023-04-24T04:07:23.188Z,12.68
2023-04-24T04:10:25.027Z,17.25
2023-04-24T04:13:26.803Z,16.67
2023-04-24T04:16:28.584Z,14.23
2023-04-24T04:19:30.625Z,16.80
2023-04-24T04:22:32.630Z,15.88
2023-04-24T04:25:34.572Z,13.10
2023-04-24T04:28:36.367Z,12.40
2023-04-24T04:31:38.321Z,12.60
2023-04-24T04:34:40.702Z,13.40
2023-04-24T04:37:42.482Z,11.60
2023-04-24T04:40:44.991Z,14.18
2023-04-24T04:43:49.116Z,14.23
2023-04-24T04:46:51.250Z,12.70
2023-04-24T04:49:54.668Z,11.73
2023-04-24T04:56:00.361Z,11.30
2023-04-24T04:59:02.165Z,11.48
2023-04-24T05:02:07.374Z,10.25
2023-04-24T05:05:09.968Z,12.70
2023-04-24T05:08:25.801Z,9.37
2023-04-24T05:11:29.174Z,10.32
2023-04-24T05:14:30.999Z,10.75
2023-04-24T05:17:32.785Z,8.60
2023-04-24T05:20:34.820Z,12.27
2023-04-24T05:23:36.631Z,10.57
2023-04-24T05:26:38.932Z,8.82
2023-04-24T05:29:41.334Z,13.18
2023-04-24T05:32:44.137Z,7.75
2023-04-24T05:35:47.764Z,7.90
2023-04-24T05:38:49.828Z,9.57
2023-04-24T05:41:52.158Z,8.98
2023-04-24T05:44:57.836Z,8.65
2023-04-24T05:47:59.926Z,8.75
2023-04-24T05:51:02.631Z,14.05
2023-04-24T05:54:04.599Z,8.73
2023-04-24T05:57:10.199Z,7.43
2023-04-24T06:00:13.151Z,7.93
2023-04-24T06:03:15.645Z,7.65
2023-04-24T06:06:17.730Z,7.53
2023-04-24T06:09:19.477Z,8.30
2023-04-24T06:12:21.650Z,6.85
2023-04-24T06:15:23.632Z,7.03
2023-04-24T06:18:25.379Z,7.50
2023-04-24T06:21:27.134Z,4.65
2023-04-24T06:24:29.689Z,5.72
2023-04-24T06:27:31.483Z,4.23
2023-04-24T06:30:33.204Z,6.88
2023-04-24T06:33:36.580Z,4.93
2023-04-24T06:39:41.792Z,6.07
2023-04-24T06:42:43.752Z,8.38
2023-04-24T06:45:46.494Z,9.18
2023-04-24T06:48:48.255Z,6.05
2023-04-24T06:51:50.900Z,12.30
2023-04-24T06:54:52.910Z,9.18
2023-04-24T06:57:55.444Z,8.40
2023-04-24T07:00:57.302Z,8.30
2023-04-24T07:03:59.260Z,8.07
2023-04-24T07:07:01.948Z,8.48
2023-04-24T07:10:05.073Z,9.90
2023-04-24T07:13:08.008Z,9.10
2023-04-24T07:16:11.432Z,11.05
2023-04-24T07:19:14.911Z,9.48
2023-04-24T07:25:20.464Z,11.95
2023-04-24T07:28:22.232Z,12.77
2023-04-24T07:31:24.217Z,10.75
2023-04-24T07:34:27.086Z,11.43
2023-04-24T07:37:30.060Z,14.20
2023-04-24T07:40:31.813Z,13.55
2023-04-24T07:43:33.570Z,12.63
2023-04-24T07:46:35.545Z,11.93
2023-04-24T07:49:37.555Z,13.63
2023-04-24T07:52:39.788Z,12.15
2023-04-24T07:55:41.664Z,12.50
2023-04-24T07:58:44.275Z,9.85
2023-04-24T08:01:53.168Z,11.77
2023-04-24T08:04:55.780Z,11.73
2023-04-24T08:07:57.836Z,12.27
2023-04-24T08:11:00.484Z,13.20
2023-04-24T08:14:02.628Z,14.88
2023-04-24T08:17:05.567Z,14.32
2023-04-24T08:20:14.306Z,18.85
2023-04-24T08:23:17.673Z,17.38
2023-04-24T08:29:26.715Z,19.30
2023-04-24T08:32:31.658Z,18.95
2023-04-24T08:35:35.848Z,15.68
2023-04-24T08:38:37.631Z,16.55
2023-04-24T08:41:40.684Z,13.80
2023-04-24T08:44:42.753Z,20.10
2023-04-24T08:47:45.652Z,17.88
2023-04-24T08:50:49.389Z,17.13
2023-04-24T08:54:00.818Z,16.38
2023-04-24T08:57:04.533Z,16.10
2023-04-24T09:00:10.425Z,14.85
2023-04-24T09:03:17.687Z,14.60
2023-04-24T09:06:23.675Z,13.65
2023-04-24T09:09:26.713Z,12.45
2023-04-24T09:12:34.777Z,11.95
2023-04-24T09:15:37.472Z,14.13
2023-04-24T09:18:39.364Z,11.15
2023-04-24T09:21:44.324Z,14.20
2023-04-24T09:24:47.509Z,12.07
2023-04-24T09:27:49.350Z,12.02
2023-04-24T09:31:05.055Z,13.73
2023-04-24T09:34:08.263Z,10.07
2023-04-24T09:37:10.392Z,10.65
2023-04-24T09:40:21.827Z,12.55
2023-04-24T09:43:25.523Z,11.07
2023-04-24T09:46:34.607Z,13.73
2023-04-24T09:49:40.172Z,12.88
2023-04-24T09:52:47.770Z,13.52
2023-04-24T09:55:54.586Z,16.35
2023-04-24T09:59:04.791Z,16.63
2023-04-24T10:02:20.074Z,13.70
2023-04-24T10:05:30.202Z,15.85
2023-04-24T10:08:37.217Z,11.82
2023-04-24T10:11:42.924Z,9.93
2023-04-24T10:14:53.138Z,11.32
2023-04-24T10:17:55.341Z,12.35
2023-04-24T10:20:59.375Z,12.05
2023-04-24T10:24:04.659Z,15.95
2023-04-24T10:27:07.076Z,12.43
2023-04-24T10:30:09.686Z,13.10
2023-04-24T10:33:13.403Z,9.33
2023-04-24T10:36:16.979Z,11.32
2023-04-24T10:39:20.427Z,11.15
2023-04-24T10:42:30.022Z,11.65
2023-04-24T10:45:31.935Z,13.52
2023-04-24T10:48:34.699Z,14.45
2023-04-24T10:51:50.363Z,12.90
2023-04-24T10:54:52.218Z,12.02
2023-04-24T10:58:07.136Z,9.35
2023-04-24T11:01:09.181Z,10.43
2023-04-24T11:04:12.151Z,12.25
2023-04-24T11:07:14.213Z,15.20
2023-04-24T11:10:28.165Z,13.30
2023-04-24T11:13:55.941Z,9.65
2023-04-24T11:16:57.803Z,11.52
2023-04-24T11:20:26.128Z,14.70
2023-04-24T11:23:38.233Z,12.18
2023-04-24T11:26:40.139Z,12.52
2023-04-24T11:29:58.706Z,9.77
2023-04-24T11:33:05.986Z,10.00
2023-04-24T11:36:10.153Z,8.77
2023-04-24T11:39:12.938Z,10.60
2023-04-24T11:42:19.590Z,9.27
2023-04-24T11:45:26.942Z,8.13
2023-04-24T11:48:30.240Z,8.63
2023-04-24T11:51:40.275Z,7.38
2023-04-24T11:54:54.849Z,9.80
2023-04-24T11:57:59.124Z,10.90
2023-04-24T12:01:02.223Z,6.40
2023-04-24T12:04:04.251Z,10.85
2023-04-24T12:07:06.427Z,8.73
2023-04-24T12:10:08.612Z,9.55
2023-04-24T12:13:13.151Z,13.93
2023-04-24T12:16:15.378Z,11.65
2023-04-24T12:19:24.217Z,7.97
2023-04-24T12:22:26.236Z,9.23
2023-04-24T12:25:33.184Z,8.30
2023-04-24T12:28:39.938Z,10.98
2023-04-24T12:31:42.514Z,7.93
2023-04-24T12:34:45.050Z,9.23
2023-04-24T12:37:47.692Z,9.90
2023-04-24T12:41:02.078Z,7.50
2023-04-24T12:44:09.597Z,9.23
2023-04-24T12:47:11.941Z,7.78
2023-04-24T12:50:17.533Z,8.60
2023-04-24T12:53:19.675Z,8.38
2023-04-24T12:56:26.639Z,10.60
2023-04-24T12:59:28.595Z,8.35
2023-04-24T13:02:32.199Z,8.82
2023-04-24T13:05:34.326Z,11.25
2023-04-24T13:08:36.165Z,9.35
2023-04-24T13:11:37.935Z,7.90
2023-04-24T13:14:39.753Z,10.10
2023-04-24T13:17:42.315Z,8.93
2023-04-24T13:20:45.817Z,9.07
2023-04-24T13:23:47.616Z,9.35
2023-04-24T13:26:50.276Z,8.18
2023-04-24T13:29:52.247Z,8.48
2023-04-24T13:32:58.841Z,8.13
2023-04-24T13:36:01.031Z,9.07
2023-04-24T13:39:05.459Z,14.73
2023-04-24T13:42:07.311Z,7.97
2023-04-24T13:48:16.482Z,6.82
2023-04-24T13:51:18.377Z,10.35
2023-04-24T13:54:20.572Z,9.60
2023-04-24T13:57:23.198Z,8.88
2023-04-24T14:00:25.257Z,7.33
2023-04-24T14:03:27.735Z,7.03
2023-04-24T14:06:29.584Z,12.67
2023-04-24T14:09:33.206Z,8.70
2023-04-24T14:12:35.388Z,5.82
2023-04-24T14:15:37.754Z,8.15
2023-04-24T14:18:39.611Z,11.05
2023-04-24T14:21:46.832Z,7.20
2023-04-24T14:24:48.866Z,7.78
2023-04-24T14:27:51.531Z,6.32
2023-04-24T14:30:54.357Z,5.22
2023-04-24T14:33:56.453Z,8.68
2023-04-24T14:36:59.828Z,8.13
2023-04-24T14:43:23.770Z,6.50
2023-04-24T14:46:25.827Z,6.88
2023-04-24T14:49:27.863Z,6.82
2023-04-24T14:52:30.470Z,6.22
2023-04-24T14:55:32.813Z,14.47
2023-04-24T14:58:36.867Z,10.88
2023-04-24T15:01:40.982Z,12.68
2023-04-24T15:04:43.230Z,9.30
2023-04-24T15:07:46.479Z,6.47
2023-04-24T15:10:50.446Z,9.77
2023-04-24T15:13:52.332Z,6.75
2023-04-24T15:16:59.737Z,6.57
2023-04-24T15:20:02.126Z,6.20
2023-04-24T15:23:05.593Z,7.97
2023-04-24T15:29:10.551Z,8.52
2023-04-24T15:32:12.620Z,9.98
2023-04-24T15:35:15.362Z,7.03
2023-04-24T15:38:17.632Z,5.25
2023-04-24T15:41:19.568Z,9.63
2023-04-24T15:44:22.882Z,6.97
2023-04-24T15:47:28.028Z,8.40
2023-04-24T15:50:29.905Z,8.93
2023-04-24T15:53:32.625Z,6.35
2023-04-24T15:56:34.538Z,7.93
2023-04-24T15:59:37.883Z,5.53
2023-04-24T16:05:49.337Z,9.27
2023-04-24T16:08:51.167Z,5.65
2023-04-24T16:11:53.892Z,7.38
2023-04-24T16:14:56.126Z,4.97
2023-04-24T16:18:03.336Z,5.15
2023-04-24T16:21:05.447Z,6.90
2023-04-24T16:24:07.348Z,9.23
2023-04-24T16:27:09.148Z,7.10
2023-04-24T16:30:11.407Z,4.35
2023-04-24T16:33:13.232Z,5.22
2023-04-24T16:36:16.131Z,4.93
2023-04-24T16:39:18.043Z,5.13
2023-04-24T16:42:20.666Z,5.40
2023-04-24T16:45:22.679Z,5.03
2023-04-24T16:48:26.010Z,5.07
2023-04-24T16:54:30.591Z,6.63
2023-04-24T16:57:32.544Z,5.47
2023-04-24T17:00:35.480Z,5.25
2023-04-24T17:03:41.950Z,7.25
2023-04-24T17:06:43.849Z,5.18
2023-04-24T17:09:45.854Z,6.45
2023-04-24T17:12:52.283Z,4.28
2023-04-24T17:15:54.053Z,3.35
2023-04-24T17:18:56.104Z,4.55
2023-04-24T17:21:58.100Z,3.38
2023-04-24T17:25:01.174Z,4.50
2023-04-24T17:28:03.380Z,5.97
2023-04-24T17:31:05.403Z,5.35
2023-04-24T17:34:08.534Z,8.95
2023-04-24T17:37:11.404Z,3.53
2023-04-24T17:40:13.320Z,6.05
2023-04-24T17:43:19.113Z,5.45
2023-04-24T17:46:20.931Z,4.85
2023-04-24T17:49:24.381Z,6.35
2023-04-24T17:55:28.175Z,5.88
2023-04-24T17:58:31.204Z,4.15
2023-04-24T18:01:34.100Z,2.20
2023-04-24T18:04:39.195Z,6.50
2023-04-24T18:07:42.703Z,5.30
2023-04-24T18:10:45.036Z,6.28
2023-04-24T18:13:47.219Z,4.47
2023-04-24T18:16:49.284Z,6.93
2023-04-24T18:19:51.179Z,4.28
2023-04-24T18:22:53.695Z,4.93
2023-04-24T18:25:55.944Z,7.10
2023-04-24T18:28:58.792Z,5.50
2023-04-24T18:32:03.946Z,6.20
2023-04-24T18:35:06.583Z,3.42
2023-04-24T18:38:08.518Z,7.10
2023-04-24T18:41:10.383Z,7.43
2023-04-24T18:44:12.639Z,7.97
2023-04-24T18:47:14.576Z,6.63
2023-04-24T18:50:17.419Z,8.18
2023-04-24T18:53:19.403Z,6.07
2023-04-24T18:56:21.395Z,5.15
2023-04-24T18:59:23.376Z,6.57
2023-04-24T19:02:26.396Z,5.32
2023-04-24T19:05:33.704Z,5.60
2023-04-24T19:08:44.874Z,9.05
2023-04-24T19:11:52.285Z,6.43
2023-04-24T19:15:01.237Z,5.80
2023-04-24T19:18:03.588Z,7.88
2023-04-24T19:21:05.733Z,5.10
2023-04-24T19:24:10.054Z,8.98
2023-04-24T19:27:12.987Z,13.25
2023-04-24T19:30:14.921Z,15.77
2023-04-24T19:33:18.320Z,8.48
2023-04-24T19:39:22.710Z,42.25
2023-04-24T19:42:35.945Z,11.27
2023-04-24T19:45:44.917Z,12.98
2023-04-24T19:48:47.245Z,11.55
2023-04-24T19:51:49.378Z,10.38
2023-04-24T19:54:52.362Z,10.43
2023-04-24T19:57:55.021Z,9.40
2023-04-24T20:00:57.835Z,8.75
2023-04-24T20:04:01.495Z,10.20
2023-04-24T20:07:03.622Z,8.55
2023-04-24T20:10:08.561Z,9.75
2023-04-24T20:13:10.290Z,10.05
2023-04-24T20:16:13.806Z,8.27
2023-04-24T20:19:15.842Z,9.07
2023-04-24T20:22:17.786Z,7.18
2023-04-24T20:25:19.850Z,7.03
2023-04-24T20:28:21.738Z,7.25
2023-04-24T20:31:23.689Z,8.43
2023-04-24T20:34:25.511Z,7.82
2023-04-24T20:37:29.191Z,8.55
2023-04-24T20:40:31.907Z,9.38
2023-04-24T20:43:34.044Z,7.90
2023-04-24T20:46:37.647Z,11.50
2023-04-24T20:49:39.704Z,12.23
2023-04-24T20:52:43.181Z,7.95
2023-04-24T20:58:47.494Z,9.80
2023-04-24T21:01:51.353Z,7.50
2023-04-24T21:04:55.670Z,9.93
2023-04-24T21:07:57.733Z,11.43
2023-04-24T21:11:01.205Z,6.32
2023-04-24T21:14:03.389Z,16.10
2023-04-24T21:17:05.405Z,7.80
2023-04-24T21:20:09.044Z,8.50
2023-04-24T21:23:11.682Z,9.13
2023-04-24T21:26:13.612Z,8.93
2023-04-24T21:29:18.730Z,8.65
2023-04-24T21:32:21.455Z,8.60
2023-04-24T21:35:24.264Z,9.63
2023-04-24T21:38:26.181Z,10.35
2023-04-24T21:41:29.741Z,7.30
2023-04-24T21:44:32.110Z,7.93
2023-04-24T21:47:34.052Z,8.45
2023-04-24T21:50:36.136Z,6.68
2023-04-24T21:53:37.993Z,7.63
2023-04-24T21:56:41.505Z,10.00
2023-04-24T21:59:43.645Z,10.23
2023-04-24T22:02:45.635Z,7.43
2023-04-24T22:05:47.662Z,7.78
2023-04-24T22:08:49.511Z,9.63
2023-04-24T22:11:51.678Z,10.77
2023-04-24T22:14:53.484Z,12.63
2023-04-24T22:17:57.641Z,6.72
2023-04-24T22:21:01.118Z,8.45
2023-04-24T22:30:09.985Z,9.00
2023-04-24T22:33:11.816Z,11.55
2023-04-24T22:36:13.627Z,8.77
2023-04-24T22:39:17.493Z,13.35
2023-04-24T22:42:19.394Z,11.65
2023-04-24T22:45:23.767Z,11.90
2023-04-24T22:48:25.994Z,8.68
2023-04-24T22:51:28.087Z,11.93
2023-04-24T22:54:30.080Z,13.57
2023-04-24T22:57:32.146Z,15.23
2023-04-24T23:00:35.658Z,11.30
2023-04-24T23:03:40.832Z,10.00
2023-04-24T23:06:45.946Z,12.18
2023-04-24T23:09:47.993Z,15.02
2023-04-24T23:12:51.005Z,15.68
2023-04-24T23:15:54.737Z,10.95
2023-04-24T23:19:03.415Z,15.05
2023-04-24T23:22:05.171Z,10.75
2023-04-24T23:25:08.629Z,12.30
2023-04-24T23:28:10.482Z,15.70
2023-04-24T23:31:12.254Z,17.63
2023-04-24T23:34:16.475Z,11.35
2023-04-24T23:37:19.219Z,12.10
2023-04-24T23:40:21.158Z,16.38
2023-04-24T23:43:24.502Z,12.15
2023-04-24T23:49:28.191Z,14.10
2023-04-24T23:52:30.218Z,12.48
2023-04-24T23:55:32.419Z,13.52
2023-04-24T23:58:34.323Z,12.70
